createdAt,value
2022-07-29T00:02:29.444Z,100195.06
2022-07-29T00:04:56.301Z,100188.44
2022-07-29T00:07:23.152Z,100192.06
2022-07-29T00:09:51.097Z,100182.66
2022-07-29T00:12:25.320Z,100183.72
2022-07-29T00:14:54.450Z,100182.09
2022-07-29T00:17:21.298Z,100182.94
2022-07-29T00:19:48.144Z,100187.34
2022-07-29T00:22:15.109Z,100184.88
2022-07-29T00:24:42.008Z,100185.72
2022-07-29T00:27:08.869Z,100186.84
2022-07-29T00:29:35.789Z,100189.63
2022-07-29T00:32:03.597Z,100185.19
2022-07-29T00:34:49.075Z,100179.13
2022-07-29T00:37:15.933Z,100174.69
2022-07-29T00:39:42.787Z,100181.91
2022-07-29T00:42:10.730Z,100181.94
2022-07-29T00:44:42.384Z,100182.22
2022-07-29T00:47:10.645Z,100187.44
2022-07-29T00:49:39.467Z,100181.09
2022-07-29T00:52:07.022Z,100181.91
2022-07-29T00:54:35.325Z,100188.59
2022-07-29T00:57:08.912Z,100184.72
2022-07-29T00:59:36.282Z,100186.94
2022-07-29T01:02:04.612Z,100188.03
2022-07-29T01:04:32.301Z,100181.41
2022-07-29T01:07:01.729Z,100185.28
2022-07-29T01:09:42.825Z,100195.28
2022-07-29T01:12:19.491Z,100186.97
2022-07-29T01:14:48.816Z,100181.44
2022-07-29T01:17:27.160Z,100183.66
2022-07-29T01:20:02.696Z,100181.44
2022-07-29T01:22:36.371Z,100172.56
2022-07-29T01:25:40.205Z,100187.53
2022-07-29T01:28:33.189Z,100181.47
2022-07-29T01:31:03.773Z,100175.66
2022-07-29T01:33:50.306Z,100186.72
2022-07-29T01:36:28.519Z,100189.22
2022-07-29T01:39:07.276Z,100186.47
2022-07-29T01:41:37.312Z,100185.34
2022-07-29T01:44:18.791Z,100187.84
2022-07-29T01:46:53.590Z,100175.41
2022-07-29T01:49:28.375Z,100185.91
2022-07-29T01:52:06.881Z,100178.16
2022-07-29T01:54:40.346Z,100186.47
2022-07-29T01:57:13.867Z,100186.19
2022-07-29T01:59:42.821Z,100187.84
2022-07-29T02:02:13.824Z,100178.44
2022-07-29T02:04:42.870Z,100173.19
2022-07-29T02:07:14.218Z,100189.78
2022-07-29T02:09:42.978Z,100182.31
2022-07-29T02:12:11.933Z,100191.44
2022-07-29T02:14:44.988Z,100189.78
2022-07-29T02:17:13.395Z,100195.88
2022-07-29T02:19:42.104Z,100187.56
2022-07-29T02:22:12.414Z,100190.34
2022-07-29T02:24:41.519Z,100182.59
2022-07-29T02:27:09.543Z,100184.53
2022-07-29T02:29:38.341Z,100185.34
2022-07-29T02:32:06.803Z,100186.72
2022-07-29T02:34:35.359Z,100187.84
2022-07-29T02:37:03.731Z,100190.59
2022-07-29T02:39:31.281Z,100192.53
2022-07-29T02:42:06.914Z,100185.59
2022-07-29T02:44:37.047Z,100191.41
2022-07-29T02:47:42.888Z,100188.66
2022-07-29T02:50:16.626Z,100184.50
2022-07-29T02:52:53.535Z,100186.44
2022-07-29T02:55:30.961Z,100182.59
2022-07-29T02:58:23.684Z,100188.66
2022-07-29T03:00:52.844Z,100184.25
2022-07-29T03:03:21.235Z,100185.06
2022-07-29T03:05:48.181Z,100184.78
2022-07-29T03:08:17.058Z,100191.69
2022-07-29T03:10:48.301Z,100182.56
2022-07-29T03:13:16.836Z,100179.78
2022-07-29T03:15:45.924Z,100177.03
2022-07-29T03:18:13.751Z,100182.00
2022-07-29T03:20:41.617Z,100185.34
2022-07-29T03:23:09.708Z,100187.00
2022-07-29T03:25:36.962Z,100192.25
2022-07-29T03:28:04.216Z,100183.41
2022-07-29T03:30:31.842Z,100184.25
2022-07-29T03:32:59.135Z,100182.31
2022-07-29T03:35:26.075Z,100190.84
2022-07-29T03:37:52.937Z,100176.47
2022-07-29T03:40:28.703Z,100189.75
2022-07-29T03:42:56.937Z,100193.59
2022-07-29T03:45:26.004Z,100197.19
2022-07-29T03:48:01.250Z,100199.41
2022-07-29T03:50:29.968Z,100197.19
2022-07-29T03:52:56.944Z,100201.91
2022-07-29T03:55:24.574Z,100203.00
2022-07-29T03:57:52.416Z,100201.91
2022-07-29T04:00:20.585Z,100204.66
2022-07-29T04:02:49.765Z,100203.53
2022-07-29T04:05:17.467Z,100208.53
2022-07-29T04:07:49.164Z,100205.22
2022-07-29T04:10:18.033Z,100209.34
2022-07-29T04:12:57.596Z,100203.00
2022-07-29T04:15:24.467Z,100207.72
2022-07-29T04:17:51.271Z,100204.09
2022-07-29T04:20:18.458Z,100207.97
2022-07-29T04:22:45.270Z,100205.22
2022-07-29T04:25:12.167Z,100204.66
2022-07-29T04:27:58.940Z,100204.94
2022-07-29T04:30:25.965Z,100207.41
2022-07-29T04:32:53.139Z,100214.34
2022-07-29T04:35:20.903Z,100214.59
2022-07-29T04:37:47.768Z,100207.13
2022-07-29T04:40:14.718Z,100213.50
2022-07-29T04:42:46.462Z,100205.75
2022-07-29T04:45:14.636Z,100206.88
2022-07-29T04:47:42.074Z,100213.53
2022-07-29T04:50:10.393Z,100208.25
2022-07-29T04:52:37.797Z,100214.34
2022-07-29T04:55:06.146Z,100220.41
2022-07-29T04:57:33.449Z,100216.28
2022-07-29T05:00:00.273Z,100217.94
2022-07-29T05:02:27.197Z,100215.72
2022-07-29T05:04:54.135Z,100219.88
2022-07-29T05:07:20.978Z,100219.03
2022-07-29T05:09:48.304Z,100225.09
2022-07-29T05:12:15.277Z,100230.34
2022-07-29T05:14:42.131Z,100233.94
2022-07-29T05:17:09.171Z,100235.34
2022-07-29T05:19:39.573Z,100233.94
2022-07-29T05:22:06.664Z,100233.69
2022-07-29T05:24:33.487Z,100231.16
2022-07-29T05:27:00.320Z,100236.16
2022-07-29T05:29:44.993Z,100234.22
2022-07-29T05:32:13.326Z,100235.56
2022-07-29T05:34:50.712Z,100241.09
2022-07-29T05:37:19.574Z,100230.63
2022-07-29T05:39:47.159Z,100234.50
2022-07-29T05:42:16.038Z,100248.88
2022-07-29T05:44:42.912Z,100248.06
2022-07-29T05:47:09.802Z,100245.03
2022-07-29T05:49:36.666Z,100245.03
2022-07-29T05:52:04.078Z,100248.88
2022-07-29T05:54:31.009Z,100252.22
2022-07-29T05:56:58.026Z,100258.28
2022-07-29T05:59:29.852Z,100251.94
2022-07-29T06:01:58.317Z,100261.06
2022-07-29T06:04:25.503Z,100262.19
2022-07-29T06:06:52.387Z,100263.06
2022-07-29T06:09:19.255Z,100262.22
2022-07-29T06:11:47.977Z,100263.88
2022-07-29T06:14:15.159Z,100262.22
2022-07-29T06:16:42.719Z,100259.47
2022-07-29T06:19:10.132Z,100263.63
2022-07-29T06:21:38.670Z,100266.41
2022-07-29T06:24:09.410Z,100261.69
2022-07-29T06:26:39.596Z,100255.06
2022-07-29T06:29:07.950Z,100257.28
2022-07-29T06:31:35.005Z,100260.59
2022-07-29T06:34:01.856Z,100270.03
2022-07-29T06:36:30.496Z,100260.88
2022-07-29T06:38:57.509Z,100265.34
2022-07-29T06:41:24.910Z,100266.44
2022-07-29T06:43:55.218Z,100269.19
2022-07-29T06:46:23.202Z,100269.19
2022-07-29T06:48:50.599Z,100272.22
2022-07-29T06:51:22.407Z,100264.75
2022-07-29T06:53:59.869Z,100269.72
2022-07-29T06:56:31.796Z,100273.59
2022-07-29T06:58:58.854Z,100277.19
2022-07-29T07:01:25.832Z,100282.16
2022-07-29T07:03:52.695Z,100275.78
2022-07-29T07:06:19.514Z,100278.53
2022-07-29T07:08:46.357Z,100268.56
2022-07-29T07:11:13.169Z,100277.69
2022-07-29T07:13:39.997Z,100269.25
2022-07-29T07:16:10.587Z,100271.97
2022-07-29T07:18:37.497Z,100272.41
2022-07-29T07:21:06.100Z,100275.84
2022-07-29T07:23:32.929Z,100276.22
2022-07-29T07:25:59.822Z,100280.50
2022-07-29T07:28:26.888Z,100283.44
2022-07-29T07:30:53.751Z,100284.06
2022-07-29T07:33:20.849Z,100288.16
2022-07-29T07:35:48.447Z,100286.28
2022-07-29T07:38:15.340Z,100281.06
2022-07-29T07:40:42.786Z,100292.31
2022-07-29T07:43:09.626Z,100286.00
2022-07-29T07:45:38.545Z,100292.44
2022-07-29T07:48:06.107Z,100296.88
2022-07-29T07:50:33.524Z,100292.97
2022-07-29T07:53:00.704Z,100296.03
2022-07-29T07:55:28.401Z,100298.88
2022-07-29T07:57:55.830Z,100295.06
2022-07-29T08:00:23.819Z,100288.69
2022-07-29T08:02:51.610Z,100283.97
2022-07-29T08:05:19.409Z,100283.88
2022-07-29T08:07:47.927Z,100286.38
2022-07-29T08:10:36.781Z,100282.13
2022-07-29T08:13:11.992Z,100284.44
2022-07-29T08:15:41.836Z,100284.09
2022-07-29T08:18:09.073Z,100282.94
2022-07-29T08:20:37.218Z,100281.50
2022-07-29T08:23:05.531Z,100273.59
2022-07-29T08:25:32.742Z,100277.22
2022-07-29T08:28:01.492Z,100272.31
2022-07-29T08:30:28.645Z,100276.41
2022-07-29T08:32:56.005Z,100265.19
2022-07-29T08:35:24.326Z,100263.53
2022-07-29T08:37:53.486Z,100275.69
2022-07-29T08:40:30.479Z,100270.75
2022-07-29T08:42:59.091Z,100278.47
2022-07-29T08:45:26.447Z,100277.38
2022-07-29T08:47:54.567Z,100270.97
2022-07-29T08:50:21.386Z,100273.03
2022-07-29T08:52:50.556Z,100272.75
2022-07-29T08:55:21.499Z,100267.28
2022-07-29T08:57:54.114Z,100269.69
2022-07-29T09:00:26.356Z,100260.81
2022-07-29T09:02:59.053Z,100267.88
2022-07-29T09:05:27.669Z,100271.06
2022-07-29T09:07:55.015Z,100271.44
2022-07-29T09:10:23.777Z,100260.53
2022-07-29T09:12:51.069Z,100266.34
2022-07-29T09:15:19.008Z,100262.84
2022-07-29T09:17:50.402Z,100266.78
2022-07-29T09:20:19.726Z,100266.72
2022-07-29T09:22:51.920Z,100266.78
2022-07-29T09:25:34.644Z,100265.69
2022-07-29T09:28:08.933Z,100257.94
2022-07-29T09:30:36.684Z,100261.84
2022-07-29T09:33:04.824Z,100255.63
2022-07-29T09:35:32.205Z,100261.03
2022-07-29T09:38:10.595Z,100267.00
2022-07-29T09:40:37.440Z,100264.41
2022-07-29T09:43:14.521Z,100265.78
2022-07-29T09:45:41.825Z,100271.03
2022-07-29T09:48:20.521Z,100273.63
2022-07-29T09:50:50.630Z,100264.31
2022-07-29T09:53:38.544Z,100273.00
2022-07-29T09:56:06.092Z,100271.38
2022-07-29T09:58:35.946Z,100268.03
2022-07-29T10:01:03.437Z,100267.81
2022-07-29T10:03:30.467Z,100261.59
2022-07-29T10:06:11.643Z,100261.81
2022-07-29T10:08:39.325Z,100261.34
2022-07-29T10:11:17.900Z,100264.78
2022-07-29T10:13:47.708Z,100264.84
2022-07-29T10:16:16.624Z,100257.75
2022-07-29T10:18:44.889Z,100263.19
2022-07-29T10:21:22.577Z,100268.84
2022-07-29T10:24:01.315Z,100270.81
2022-07-29T10:26:30.182Z,100273.25
2022-07-29T10:28:57.807Z,100276.09
2022-07-29T10:31:36.064Z,100275.44
2022-07-29T10:34:23.300Z,100268.28
2022-07-29T10:37:03.397Z,100273.06
2022-07-29T10:40:31.169Z,100269.38
2022-07-29T10:43:11.123Z,100277.69
2022-07-29T10:45:42.750Z,100278.75
2022-07-29T10:48:10.528Z,100273.13
2022-07-29T10:50:57.884Z,100272.66
2022-07-29T10:53:25.504Z,100273.75
2022-07-29T10:55:54.053Z,100269.38
2022-07-29T10:58:25.123Z,100262.69
2022-07-29T11:00:53.772Z,100266.78
2022-07-29T11:07:11.704Z,100268.44
2022-07-29T11:09:39.698Z,100265.72
2022-07-29T11:12:45.172Z,100247.78
2022-07-29T11:15:18.415Z,100246.47
2022-07-29T11:17:59.469Z,100257.13
2022-07-29T11:20:50.137Z,100257.34
2022-07-29T11:23:33.753Z,100252.63
2022-07-29T11:26:28.294Z,100250.56
2022-07-29T11:28:58.861Z,100238.72
2022-07-29T11:31:43.922Z,100245.81
2022-07-29T11:34:21.075Z,100239.06
2022-07-29T11:37:07.757Z,100242.00
2022-07-29T11:39:36.815Z,100247.13
2022-07-29T11:42:28.210Z,100237.22
2022-07-29T11:48:05.288Z,100233.47
2022-07-29T11:50:46.276Z,100230.16
2022-07-29T11:53:16.083Z,100231.16
2022-07-29T11:58:31.784Z,100232.84
2022-07-29T12:01:04.572Z,100231.50
2022-07-29T12:03:33.562Z,100233.66
2022-07-29T12:06:08.056Z,100226.22
2022-07-29T12:08:42.049Z,100218.66
2022-07-29T12:11:17.491Z,100223.44
2022-07-29T12:13:47.515Z,100213.25
2022-07-29T12:16:16.337Z,100212.91
2022-07-29T12:19:04.165Z,100211.56
2022-07-29T12:21:57.023Z,100220.91
2022-07-29T12:24:27.397Z,100215.78
2022-07-29T12:26:57.019Z,100210.03
2022-07-29T12:29:34.892Z,100209.34
2022-07-29T12:32:06.428Z,100214.56
2022-07-29T12:34:41.985Z,100201.03
2022-07-29T12:37:11.243Z,100211.44
2022-07-29T12:39:38.324Z,100206.31
2022-07-29T12:42:18.526Z,100211.16
2022-07-29T12:44:52.586Z,100213.06
2022-07-29T12:47:20.677Z,100213.38
2022-07-29T12:49:48.956Z,100209.91
2022-07-29T12:52:26.026Z,100205.00
2022-07-29T12:54:52.887Z,100205.97
2022-07-29T12:57:20.372Z,100213.53
2022-07-29T13:00:08.894Z,100218.00
2022-07-29T13:02:37.505Z,100218.81
2022-07-29T13:05:06.031Z,100217.84
2022-07-29T13:07:53.979Z,100222.63
2022-07-29T13:10:23.904Z,100232.50
2022-07-29T13:13:10.438Z,100231.50
2022-07-29T13:15:39.391Z,100228.53
2022-07-29T13:18:26.732Z,100224.91
2022-07-29T13:20:53.593Z,100227.22
2022-07-29T13:23:20.404Z,100231.19
2022-07-29T13:25:47.250Z,100234.63
2022-07-29T13:28:14.254Z,100231.31
2022-07-29T13:30:44.434Z,100235.59
2022-07-29T13:33:11.954Z,100229.19
2022-07-29T13:35:40.042Z,100237.50
2022-07-29T13:38:07.141Z,100235.91
2022-07-29T13:40:36.373Z,100235.28
2022-07-29T13:43:03.323Z,100236.75
2022-07-29T13:45:30.948Z,100218.97
2022-07-29T13:47:57.769Z,100212.88
2022-07-29T13:50:24.811Z,100207.09
2022-07-29T13:52:52.287Z,100201.69
2022-07-29T13:55:19.639Z,100205.13
2022-07-29T13:57:46.535Z,100222.09
2022-07-29T14:00:14.484Z,100226.03
2022-07-29T14:02:41.394Z,100226.81
2022-07-29T14:05:10.834Z,100218.53
2022-07-29T14:07:40.110Z,100219.19
2022-07-29T14:10:07.616Z,100218.84
2022-07-29T14:12:34.566Z,100215.72
2022-07-29T14:15:01.827Z,100215.72
2022-07-29T14:17:28.664Z,100211.78
2022-07-29T14:19:55.516Z,100216.56
2022-07-29T14:22:23.089Z,100215.44
2022-07-29T14:24:52.461Z,100216.16
2022-07-29T14:27:19.524Z,100217.50
2022-07-29T14:30:04.426Z,100218.34
2022-07-29T14:33:02.033Z,100222.78
2022-07-29T14:35:29.112Z,100219.66
2022-07-29T14:37:56.029Z,100217.34
2022-07-29T14:40:22.928Z,100223.78
2022-07-29T14:42:50.249Z,100217.50
2022-07-29T14:45:17.067Z,100223.44
2022-07-29T14:47:43.998Z,100214.22
2022-07-29T14:50:11.373Z,100221.28
2022-07-29T14:52:38.258Z,100212.88
2022-07-29T14:55:06.041Z,100212.56
2022-07-29T14:57:47.108Z,100215.03
2022-07-29T15:00:14.238Z,100210.25
2022-07-29T15:03:00.805Z,100211.91
2022-07-29T15:05:28.459Z,100210.09
2022-07-29T15:07:55.436Z,100205.97
2022-07-29T15:10:22.378Z,100209.59
2022-07-29T15:12:51.671Z,100203.00
2022-07-29T15:15:18.694Z,100197.41
2022-07-29T15:17:46.735Z,100201.50
2022-07-29T15:20:13.741Z,100202.31
2022-07-29T15:22:42.369Z,100209.59
2022-07-29T15:25:11.412Z,100201.03
2022-07-29T15:27:38.294Z,100203.50
2022-07-29T15:30:05.700Z,100202.03
2022-07-29T15:32:32.512Z,100207.16
2022-07-29T15:34:59.533Z,100205.81
2022-07-29T15:37:26.771Z,100197.75
2022-07-29T15:39:58.289Z,100196.41
2022-07-29T15:42:26.755Z,100198.22
2022-07-29T15:44:54.418Z,100203.00
2022-07-29T15:47:21.292Z,100195.78
2022-07-29T15:49:49.479Z,100195.78
2022-07-29T15:52:25.837Z,100195.78
2022-07-29T15:54:55.292Z,100191.28
2022-07-29T15:57:22.326Z,100189.66
2022-07-29T15:59:49.164Z,100189.81
2022-07-29T16:02:15.994Z,100190.66
2022-07-29T16:04:42.798Z,100195.09
2022-07-29T16:07:10.054Z,100183.75
2022-07-29T16:09:36.885Z,100191.81
2022-07-29T16:12:10.563Z,100180.78
2022-07-29T16:14:43.806Z,100183.75
2022-07-29T16:17:14.592Z,100181.59
2022-07-29T16:19:43.190Z,100182.59
2022-07-29T16:22:10.311Z,100182.06
2022-07-29T16:24:37.261Z,100183.56
2022-07-29T16:27:04.414Z,100175.19
2022-07-29T16:29:31.361Z,100174.84
2022-07-29T16:31:58.272Z,100176.16
2022-07-29T16:34:25.117Z,100174.50
2022-07-29T16:36:51.976Z,100180.59
2022-07-29T16:39:18.775Z,100183.41
2022-07-29T16:41:45.667Z,100180.78
2022-07-29T16:44:12.560Z,100174.66
2022-07-29T16:46:40.866Z,100175.78
2022-07-29T16:49:08.583Z,100174.84
2022-07-29T16:51:35.517Z,100173.13
2022-07-29T16:54:02.536Z,100174.13
2022-07-29T16:56:29.458Z,100169.19
2022-07-29T16:58:58.154Z,100175.63
2022-07-29T17:01:25.111Z,100186.84
2022-07-29T17:04:07.017Z,100176.94
2022-07-29T17:06:37.963Z,100183.03
2022-07-29T17:09:09.921Z,100172.81
2022-07-29T17:11:52.781Z,100165.22
2022-07-29T17:14:25.260Z,100173.47
2022-07-29T17:17:00.908Z,100153.31
2022-07-29T17:19:32.744Z,100153.50
2022-07-29T17:22:09.452Z,100162.41
2022-07-29T17:24:38.936Z,100153.03
2022-07-29T17:27:07.198Z,100151.41
2022-07-29T17:29:35.143Z,100160.63
2022-07-29T17:32:02.199Z,100165.75
2022-07-29T17:34:29.074Z,100162.28
2022-07-29T17:36:56.846Z,100157.50
2022-07-29T17:39:24.130Z,100161.81
2022-07-29T17:41:50.952Z,100160.00
2022-07-29T17:44:17.757Z,100155.38
2022-07-29T17:46:44.862Z,100166.09
2022-07-29T17:49:11.898Z,100160.34
2022-07-29T17:51:38.871Z,100156.88
2022-07-29T17:54:05.789Z,100166.09
2022-07-29T17:56:32.707Z,100156.56
2022-07-29T17:59:01.620Z,100153.59
2022-07-29T18:01:29.163Z,100164.63
2022-07-29T18:03:59.825Z,100165.94
2022-07-29T18:06:27.212Z,100165.28
2022-07-29T18:08:54.204Z,100175.31
2022-07-29T18:11:22.033Z,100166.72
2022-07-29T18:13:49.081Z,100170.19
2022-07-29T18:16:16.020Z,100166.88
2022-07-29T18:18:44.315Z,100165.25
2022-07-29T18:21:12.020Z,100161.44
2022-07-29T18:23:38.865Z,100162.91
2022-07-29T18:26:05.702Z,100162.78
2022-07-29T18:28:32.953Z,100164.06
2022-07-29T18:31:00.706Z,100181.50
2022-07-29T18:33:30.446Z,100178.19
2022-07-29T18:36:06.114Z,100166.81
2022-07-29T18:38:42.388Z,100165.66
2022-07-29T18:41:09.599Z,100172.22
2022-07-29T18:43:36.494Z,100162.31
2022-07-29T18:46:05.494Z,100158.84
2022-07-29T18:48:33.565Z,100160.97
2022-07-29T18:51:01.178Z,100164.91
2022-07-29T18:53:28.214Z,100153.34
2022-07-29T18:56:00.156Z,100152.66
2022-07-29T18:58:27.383Z,100156.75
2022-07-29T19:00:54.238Z,100150.78
2022-07-29T19:03:21.214Z,100148.97
2022-07-29T19:05:51.654Z,100148.59
2022-07-29T19:08:18.508Z,100147.41
2022-07-29T19:10:45.814Z,100149.50
2022-07-29T19:13:13.640Z,100154.72
2022-07-29T19:15:40.993Z,100157.13
2022-07-29T19:18:07.877Z,100155.13
2022-07-29T19:20:34.778Z,100158.03
2022-07-29T19:23:01.591Z,100152.56
2022-07-29T19:25:28.793Z,100158.78
2022-07-29T19:27:59.221Z,100159.00
2022-07-29T19:30:26.161Z,100160.09
2022-07-29T19:32:52.997Z,100163.81
2022-07-29T19:35:28.563Z,100162.81
2022-07-29T19:37:56.645Z,100169.16
2022-07-29T19:40:23.783Z,100173.38
2022-07-29T19:42:51.799Z,100166.56
2022-07-29T19:45:22.382Z,100170.63
2022-07-29T19:47:49.764Z,100163.81
2022-07-29T19:50:17.337Z,100167.03
2022-07-29T19:52:47.256Z,100157.31
2022-07-29T19:55:15.173Z,100161.69
2022-07-29T19:57:42.100Z,100162.28
2022-07-29T20:00:12.072Z,100160.00
2022-07-29T20:02:40.348Z,100158.25
2022-07-29T20:05:09.589Z,100159.78
2022-07-29T20:07:37.621Z,100154.53
2022-07-29T20:10:05.372Z,100159.88
2022-07-29T20:12:32.260Z,100157.06
2022-07-29T20:14:59.427Z,100157.22
2022-07-29T20:17:27.804Z,100163.78
2022-07-29T20:19:56.377Z,100161.69
2022-07-29T20:22:24.440Z,100163.41
2022-07-29T20:24:51.898Z,100171.72
2022-07-29T20:27:19.256Z,100169.41
2022-07-29T20:29:46.396Z,100165.94
2022-07-29T20:32:13.503Z,100159.16
2022-07-29T20:34:44.588Z,100172.66
2022-07-29T20:37:13.494Z,100174.22
2022-07-29T20:39:42.783Z,100175.47
2022-07-29T20:42:09.701Z,100183.88
2022-07-29T20:44:36.971Z,100184.50
2022-07-29T20:47:03.859Z,100183.81
2022-07-29T20:49:31.727Z,100193.63
2022-07-29T20:51:58.633Z,100201.75
2022-07-29T20:54:26.918Z,100193.53
2022-07-29T20:56:53.860Z,100197.19
2022-07-29T20:59:21.376Z,100192.28
2022-07-29T21:01:48.744Z,100195.69
2022-07-29T21:04:16.769Z,100203.50
2022-07-29T21:06:44.228Z,100200.47
2022-07-29T21:09:11.507Z,100197.44
2022-07-29T21:11:43.633Z,100196.59
2022-07-29T21:14:38.553Z,100197.44
2022-07-29T21:17:07.356Z,100189.38
2022-07-29T21:19:35.139Z,100189.94
2022-07-29T21:22:02.257Z,100194.34
2022-07-29T21:24:29.301Z,100190.47
2022-07-29T21:27:20.700Z,100186.84
2022-07-29T21:29:48.457Z,100186.03
2022-07-29T21:32:27.613Z,100171.63
2022-07-29T21:34:57.997Z,100173.84
2022-07-29T21:37:25.426Z,100182.19
2022-07-29T21:39:52.300Z,100172.50
2022-07-29T21:42:19.391Z,100174.47
2022-07-29T21:44:46.255Z,100174.00
2022-07-29T21:47:13.163Z,100175.16
2022-07-29T21:49:40.013Z,100174.06
2022-07-29T21:52:07.906Z,100168.88
2022-07-29T21:54:35.272Z,100170.03
2022-07-29T21:57:02.427Z,100176.44
2022-07-29T21:59:29.831Z,100178.13
2022-07-29T22:02:00.875Z,100175.41
2022-07-29T22:04:29.278Z,100176.50
2022-07-29T22:06:57.177Z,100184.59
2022-07-29T22:09:25.107Z,100181.25
2022-07-29T22:11:51.946Z,100182.69
2022-07-29T22:14:18.867Z,100182.13
2022-07-29T22:16:46.632Z,100184.63
2022-07-29T22:19:14.539Z,100183.81
2022-07-29T22:21:42.088Z,100190.19
2022-07-29T22:24:10.405Z,100178.59
2022-07-29T22:26:38.326Z,100178.06
2022-07-29T22:29:05.547Z,100167.81
2022-07-29T22:31:32.425Z,100173.13
2022-07-29T22:33:59.414Z,100181.66
2022-07-29T22:36:27.057Z,100181.13
2022-07-29T22:38:53.858Z,100189.16
2022-07-29T22:41:20.681Z,100187.78
2022-07-29T22:43:47.512Z,100178.91
2022-07-29T22:46:14.376Z,100176.13
2022-07-29T22:48:41.300Z,100173.34
2022-07-29T22:51:08.324Z,100181.13
2022-07-29T22:53:36.066Z,100175.34
2022-07-29T22:56:03.087Z,100181.69
2022-07-29T22:58:29.909Z,100175.63
2022-07-29T23:00:56.860Z,100183.38
2022-07-29T23:03:24.018Z,100182.28
2022-07-29T23:05:51.974Z,100176.78
2022-07-29T23:08:19.416Z,100172.91
2022-07-29T23:10:46.742Z,100180.41
2022-07-29T23:13:13.977Z,100185.13
2022-07-29T23:15:41.738Z,100189.56
2022-07-29T23:18:08.759Z,100192.34
2022-07-29T23:20:36.390Z,100196.22
2022-07-29T23:23:03.353Z,100190.69
2022-07-29T23:25:30.385Z,100182.13
2022-07-29T23:27:57.311Z,100179.91
2022-07-29T23:30:24.546Z,100182.97
2022-07-29T23:32:51.464Z,100182.44
2022-07-29T23:35:18.508Z,100183.53
2022-07-29T23:37:45.382Z,100185.19
2022-07-29T23:40:14.687Z,100178.28
2022-07-29T23:42:42.770Z,100179.38
2022-07-29T23:45:11.580Z,100176.91
2022-07-29T23:47:38.777Z,100176.34
2022-07-29T23:50:07.095Z,100168.59
2022-07-29T23:52:34.000Z,100178.31
2022-07-29T23:55:36.480Z,100171.69
2022-07-29T23:57:50.404Z,100165.06
